createdAt,value
2023-02-22T00:04:21.028Z,93.23
2023-02-22T00:06:49.781Z,93.52
2023-02-22T00:09:20.743Z,93.17
2023-02-22T00:11:48.783Z,93.31
2023-02-22T00:14:20.390Z,93.99
2023-02-22T00:16:48.047Z,93.32
2023-02-22T00:19:16.976Z,93.07
2023-02-22T00:21:45.191Z,94.45
2023-02-22T00:24:23.112Z,94.67
2023-02-22T00:26:52.005Z,93.48
2023-02-22T00:29:20.728Z,92.80
2023-02-22T00:31:48.417Z,93.69
2023-02-22T00:34:17.333Z,93.18
2023-02-22T00:36:48.234Z,93.75
2023-02-22T00:39:15.925Z,92.01
2023-02-22T00:41:43.733Z,90.82
2023-02-22T00:44:11.666Z,91.77
2023-02-22T00:46:39.185Z,93.94
2023-02-22T00:49:06.711Z,94.10
2023-02-22T00:51:35.521Z,94.64
2023-02-22T00:54:03.029Z,94.85
2023-02-22T00:56:30.552Z,94.45
2023-02-22T00:58:58.087Z,93.63
2023-02-22T01:01:25.620Z,92.32
2023-02-22T01:03:53.080Z,92.28
2023-02-22T01:06:21.019Z,91.21
2023-02-22T01:08:50.030Z,90.05
2023-02-22T01:11:18.554Z,90.56
2023-02-22T01:13:46.268Z,91.74
2023-02-22T01:16:13.786Z,92.04
2023-02-22T01:18:41.286Z,93.21
2023-02-22T01:21:08.935Z,94.13
2023-02-22T01:23:36.577Z,94.08
2023-02-22T01:26:06.077Z,94.51
2023-02-22T01:28:33.801Z,95.26
2023-02-22T01:31:02.844Z,95.14
2023-02-22T01:33:30.489Z,94.84
2023-02-22T01:35:58.113Z,95.11
2023-02-22T01:38:26.101Z,94.44
2023-02-22T01:40:53.707Z,95.20
2023-02-22T01:43:24.255Z,95.82
2023-02-22T01:45:57.336Z,95.72
2023-02-22T01:48:29.618Z,95.72
2023-02-22T01:51:00.972Z,95.64
2023-02-22T01:53:31.582Z,95.36
2023-02-22T01:55:59.630Z,95.79
2023-02-22T01:58:29.667Z,95.45
2023-02-22T02:00:58.539Z,93.92
2023-02-22T02:03:29.395Z,93.16
2023-02-22T02:06:00.038Z,92.51
2023-02-22T02:08:36.019Z,92.62
2023-02-22T02:11:05.923Z,93.33
2023-02-22T02:13:36.672Z,94.04
2023-02-22T02:16:04.615Z,94.68
2023-02-22T02:18:32.717Z,94.06
2023-02-22T02:21:22.081Z,94.73
2023-02-22T02:24:19.855Z,95.16
2023-02-22T02:27:03.574Z,96.12
2023-02-22T02:29:52.248Z,95.76
2023-02-22T02:32:41.892Z,95.83
2023-02-22T02:35:14.319Z,96.29
2023-02-22T02:37:48.892Z,96.12
2023-02-22T02:40:21.580Z,95.94
2023-02-22T02:42:54.653Z,96.35
2023-02-22T02:45:24.990Z,95.88
2023-02-22T02:47:58.586Z,96.70
2023-02-22T02:50:29.070Z,95.80
2023-02-22T02:52:58.729Z,96.14
2023-02-22T02:55:26.520Z,95.88
2023-02-22T02:57:53.990Z,96.33
2023-02-22T03:00:25.801Z,96.31
2023-02-22T03:03:03.172Z,95.46
2023-02-22T03:05:42.949Z,95.18
2023-02-22T03:08:14.688Z,95.99
2023-02-22T03:10:54.116Z,96.62
2023-02-22T03:13:28.826Z,96.76
2023-02-22T03:16:03.608Z,96.84
2023-02-22T03:18:43.019Z,96.98
2023-02-22T03:21:16.543Z,96.91
2023-02-22T03:23:46.687Z,96.53
2023-02-22T03:26:19.389Z,96.66
2023-02-22T03:28:48.810Z,96.04
2023-02-22T03:31:19.496Z,96.10
2023-02-22T03:33:52.145Z,96.74
2023-02-22T03:36:24.931Z,96.30
2023-02-22T03:38:55.457Z,96.91
2023-02-22T03:41:25.153Z,96.81
2023-02-22T03:43:55.929Z,96.82
2023-02-22T03:46:24.799Z,96.21
2023-02-22T03:48:57.209Z,95.35
2023-02-22T03:51:24.934Z,93.33
2023-02-22T03:53:53.670Z,93.02
2023-02-22T03:56:24.527Z,91.17
2023-02-22T03:58:52.621Z,89.25
2023-02-22T04:01:23.580Z,90.66
2023-02-22T04:03:51.089Z,91.33
2023-02-22T04:06:19.968Z,92.53
2023-02-22T04:08:47.445Z,92.24
2023-02-22T04:11:15.349Z,94.14
2023-02-22T04:13:42.939Z,92.67
2023-02-22T04:16:10.655Z,91.74
2023-02-22T04:18:38.211Z,91.83
2023-02-22T04:21:05.978Z,93.10
2023-02-22T04:23:34.749Z,93.43
2023-02-22T04:26:03.464Z,92.26
2023-02-22T04:28:30.950Z,92.42
2023-02-22T04:30:58.429Z,91.73
2023-02-22T04:33:25.957Z,90.06
2023-02-22T04:35:53.458Z,89.45
2023-02-22T04:38:20.989Z,89.38
2023-02-22T04:40:49.856Z,89.93
2023-02-22T04:43:17.441Z,91.34
2023-02-22T04:45:44.965Z,90.96
2023-02-22T04:48:12.482Z,91.57
2023-02-22T04:50:40.555Z,91.35
2023-02-22T04:53:08.046Z,91.71
2023-02-22T04:55:35.523Z,91.82
2023-02-22T04:58:04.358Z,93.11
2023-02-22T05:00:31.824Z,92.51
2023-02-22T05:02:59.351Z,93.51
2023-02-22T05:05:26.830Z,93.80
2023-02-22T05:07:54.351Z,93.24
2023-02-22T05:10:22.017Z,93.41
2023-02-22T05:12:49.598Z,93.57
2023-02-22T05:15:20.468Z,94.12
2023-02-22T05:17:48.031Z,94.09
2023-02-22T05:20:19.862Z,95.05
2023-02-22T05:22:47.415Z,95.13
2023-02-22T05:25:15.062Z,94.92
2023-02-22T05:27:42.531Z,94.55
2023-02-22T05:30:12.668Z,93.94
2023-02-22T05:32:41.462Z,92.67
2023-02-22T05:35:09.257Z,92.02
2023-02-22T05:37:39.233Z,91.93
2023-02-22T05:40:07.682Z,92.77
2023-02-22T05:42:35.199Z,92.50
2023-02-22T05:45:03.643Z,92.49
2023-02-22T05:47:31.112Z,92.83
2023-02-22T05:49:59.922Z,93.58
2023-02-22T05:52:27.672Z,93.74
2023-02-22T05:54:55.147Z,93.40
2023-02-22T05:57:22.776Z,94.77
2023-02-22T05:59:50.808Z,94.37
2023-02-22T06:02:18.428Z,94.63
2023-02-22T06:04:46.034Z,93.66
2023-02-22T06:07:15.613Z,92.12
2023-02-22T06:09:43.436Z,92.35
2023-02-22T06:12:11.229Z,91.80
2023-02-22T06:14:40.879Z,92.66
2023-02-22T06:17:08.376Z,92.00
2023-02-22T06:19:35.978Z,93.99
2023-02-22T06:22:03.507Z,94.17
2023-02-22T06:24:32.375Z,95.04
2023-02-22T06:27:01.320Z,94.98
2023-02-22T06:29:29.634Z,94.76
2023-02-22T06:31:57.190Z,93.77
2023-02-22T06:34:24.721Z,93.26
2023-02-22T06:36:52.180Z,92.29
2023-02-22T06:39:19.805Z,92.96
2023-02-22T06:41:50.424Z,94.36
2023-02-22T06:44:17.986Z,93.92
2023-02-22T06:46:51.139Z,94.25
2023-02-22T06:49:19.229Z,94.08
2023-02-22T06:51:47.011Z,92.90
2023-02-22T06:54:15.018Z,93.77
2023-02-22T06:56:42.503Z,94.23
2023-02-22T06:59:11.333Z,93.44
2023-02-22T07:01:41.458Z,93.42
2023-02-22T07:04:09.026Z,94.12
2023-02-22T07:06:37.292Z,93.11
2023-02-22T07:09:05.110Z,92.62
2023-02-22T07:11:32.667Z,91.96
2023-02-22T07:14:00.155Z,92.43
2023-02-22T07:16:29.019Z,93.31
2023-02-22T07:18:56.582Z,93.94
2023-02-22T07:21:24.727Z,94.00
2023-02-22T07:23:53.831Z,93.98
2023-02-22T07:26:21.675Z,93.59
2023-02-22T07:28:49.762Z,92.90
2023-02-22T07:31:18.200Z,93.10
2023-02-22T07:33:48.337Z,92.77
2023-02-22T07:36:17.848Z,93.22
2023-02-22T07:38:45.644Z,92.52
2023-02-22T07:41:13.264Z,91.72
2023-02-22T07:43:40.823Z,91.86
2023-02-22T07:46:08.476Z,91.00
2023-02-22T07:48:35.965Z,90.68
2023-02-22T07:51:05.934Z,90.41
2023-02-22T07:53:34.364Z,91.03
2023-02-22T07:56:03.119Z,90.16
2023-02-22T07:58:31.645Z,90.86
2023-02-22T08:01:01.985Z,90.27
2023-02-22T08:03:34.266Z,89.92
2023-02-22T08:06:02.960Z,89.39
2023-02-22T08:08:31.810Z,88.17
2023-02-22T08:10:59.351Z,87.48
2023-02-22T08:13:26.857Z,87.88
2023-02-22T08:15:55.221Z,86.21
2023-02-22T08:18:25.954Z,86.41
2023-02-22T08:20:54.755Z,86.57
2023-02-22T08:23:25.209Z,86.19
2023-02-22T08:25:54.364Z,84.22
2023-02-22T08:28:23.531Z,83.98
2023-02-22T08:30:51.639Z,82.98
2023-02-22T08:33:20.443Z,82.25
2023-02-22T08:35:50.035Z,83.91
2023-02-22T08:38:20.410Z,83.86
2023-02-22T08:40:48.994Z,84.25
2023-02-22T08:43:18.238Z,81.79
2023-02-22T08:45:46.379Z,84.34
2023-02-22T08:48:14.982Z,85.97
2023-02-22T08:50:42.794Z,85.05
2023-02-22T08:53:11.467Z,84.27
2023-02-22T08:55:40.122Z,85.97
2023-02-22T08:58:09.677Z,83.34
2023-02-22T09:00:39.498Z,83.88
2023-02-22T09:03:08.227Z,84.78
2023-02-22T09:05:35.772Z,82.89
2023-02-22T09:08:03.600Z,83.67
2023-02-22T09:10:32.653Z,83.53
2023-02-22T09:13:01.178Z,84.11
2023-02-22T09:15:29.556Z,82.44
2023-02-22T09:17:58.446Z,82.11
2023-02-22T09:20:26.354Z,82.40
2023-02-22T09:22:54.699Z,80.67
2023-02-22T09:25:22.624Z,82.48
2023-02-22T09:27:50.869Z,81.58
2023-02-22T09:30:23.518Z,80.95
2023-02-22T09:32:52.154Z,80.17
2023-02-22T09:35:26.829Z,80.56
2023-02-22T09:37:55.847Z,80.92
2023-02-22T09:40:29.932Z,83.92
2023-02-22T09:43:11.950Z,80.35
2023-02-22T09:45:48.168Z,80.37
2023-02-22T09:48:21.952Z,79.28
2023-02-22T09:50:52.574Z,80.14
2023-02-22T09:53:29.452Z,79.78
2023-02-22T09:56:00.449Z,81.12
2023-02-22T09:58:33.652Z,82.27
2023-02-22T10:01:17.631Z,78.81
2023-02-22T10:03:51.121Z,78.82
2023-02-22T10:06:22.750Z,78.13
2023-02-22T10:08:54.593Z,79.68
2023-02-22T10:11:34.505Z,77.53
2023-02-22T10:14:09.809Z,78.81
2023-02-22T10:16:41.141Z,77.78
2023-02-22T10:19:18.657Z,76.28
2023-02-22T10:21:55.252Z,76.90
2023-02-22T10:24:32.207Z,75.79
2023-02-22T10:27:00.147Z,76.82
2023-02-22T10:29:32.579Z,77.16
2023-02-22T10:32:03.045Z,79.24
2023-02-22T10:34:34.261Z,75.19
2023-02-22T10:37:24.618Z,80.33
2023-02-22T10:39:54.716Z,75.24
2023-02-22T10:42:23.967Z,75.94
2023-02-22T10:44:51.488Z,80.03
2023-02-22T10:47:21.837Z,80.38
2023-02-22T10:49:52.302Z,78.33
2023-02-22T10:52:26.198Z,77.05
2023-02-22T10:55:01.019Z,78.03
2023-02-22T10:57:35.958Z,78.52
2023-02-22T11:00:19.554Z,79.74
2023-02-22T11:02:54.603Z,78.79
2023-02-22T11:05:30.383Z,74.98
2023-02-22T11:08:19.988Z,79.40
2023-02-22T11:10:48.184Z,79.12
2023-02-22T11:13:20.227Z,79.41
2023-02-22T11:15:47.981Z,77.67
2023-02-22T11:18:25.084Z,75.20
2023-02-22T11:21:04.217Z,76.23
2023-02-22T11:23:33.540Z,78.10
2023-02-22T11:26:03.694Z,75.63
2023-02-22T11:28:32.810Z,78.29
2023-02-22T11:31:11.087Z,77.96
2023-02-22T11:33:38.950Z,75.62
2023-02-22T11:36:10.200Z,77.67
2023-02-22T11:38:40.092Z,75.71
2023-02-22T11:41:18.794Z,75.17
2023-02-22T11:43:47.916Z,76.83
2023-02-22T11:46:18.816Z,75.38
2023-02-22T11:48:55.286Z,75.44
2023-02-22T11:51:30.967Z,74.84
2023-02-22T11:54:31.175Z,75.34
2023-02-22T11:57:07.994Z,73.98
2023-02-22T11:59:40.660Z,74.67
2023-02-22T12:02:18.464Z,74.17
2023-02-22T12:04:56.632Z,74.71
2023-02-22T12:07:33.317Z,74.96
2023-02-22T12:10:09.961Z,74.92
2023-02-22T12:12:55.675Z,74.62
2023-02-22T12:15:29.883Z,75.53
2023-02-22T12:18:02.123Z,76.05
2023-02-22T12:20:33.348Z,74.17
2023-02-22T12:23:06.980Z,73.31
2023-02-22T12:25:38.825Z,73.18
2023-02-22T12:28:24.314Z,76.48
2023-02-22T12:30:56.475Z,74.28
2023-02-22T12:33:26.961Z,74.36
2023-02-22T12:35:56.652Z,74.53
2023-02-22T12:38:31.109Z,76.48
2023-02-22T12:41:04.795Z,72.88
2023-02-22T12:43:35.558Z,72.68
2023-02-22T12:46:05.653Z,72.62
2023-02-22T12:48:41.885Z,74.95
2023-02-22T12:51:22.344Z,71.81
2023-02-22T12:53:57.225Z,73.28
2023-02-22T12:56:31.804Z,74.58
2023-02-22T12:59:03.882Z,73.71
2023-02-22T13:01:36.688Z,73.55
2023-02-22T13:04:19.506Z,74.17
2023-02-22T13:06:58.087Z,73.33
2023-02-22T13:09:59.950Z,72.58
2023-02-22T13:12:36.138Z,72.68
2023-02-22T13:15:09.437Z,72.35
2023-02-22T13:17:42.368Z,73.15
2023-02-22T13:20:14.642Z,72.65
2023-02-22T13:22:46.182Z,73.61
2023-02-22T13:25:19.826Z,72.72
2023-02-22T13:27:52.465Z,73.05
2023-02-22T13:30:21.340Z,73.31
2023-02-22T13:33:19.180Z,73.31
2023-02-22T13:36:03.072Z,72.49
2023-02-22T13:38:45.217Z,73.50
2023-02-22T13:41:34.913Z,72.59
2023-02-22T13:44:35.193Z,72.84
2023-02-22T13:47:39.918Z,74.04
2023-02-22T13:50:30.178Z,73.94
2023-02-22T13:52:59.216Z,72.31
2023-02-22T13:55:34.644Z,73.23
2023-02-22T13:58:04.912Z,72.06
2023-02-22T14:00:48.270Z,72.18
2023-02-22T14:03:36.217Z,72.73
2023-02-22T14:06:13.076Z,72.76
2023-02-22T14:08:50.340Z,72.51
2023-02-22T14:11:56.797Z,71.91
2023-02-22T14:14:24.776Z,73.33
2023-02-22T14:17:25.053Z,73.16
2023-02-22T14:20:02.532Z,73.50
2023-02-22T14:22:31.002Z,74.17
2023-02-22T14:24:59.399Z,74.19
2023-02-22T14:27:40.511Z,74.10
2023-02-22T14:30:24.782Z,74.74
2023-02-22T14:32:53.833Z,75.27
2023-02-22T14:35:30.019Z,75.12
2023-02-22T14:38:04.133Z,74.75
2023-02-22T14:40:33.682Z,75.21
2023-02-22T14:43:03.413Z,74.39
2023-02-22T14:45:33.350Z,75.44
2023-02-22T14:48:11.601Z,74.63
2023-02-22T14:50:45.843Z,74.82
2023-02-22T14:53:21.127Z,74.73
2023-02-22T14:55:53.316Z,77.16
2023-02-22T14:58:23.347Z,74.42
2023-02-22T15:00:52.862Z,75.57
2023-02-22T15:03:32.682Z,74.77
2023-02-22T15:06:05.799Z,74.77
2023-02-22T15:08:34.336Z,75.39
2023-02-22T15:11:03.442Z,75.73
2023-02-22T15:13:32.937Z,75.88
2023-02-22T15:16:02.364Z,75.59
2023-02-22T15:18:35.425Z,75.94
2023-02-22T15:21:10.502Z,75.89
2023-02-22T15:23:44.500Z,75.68
2023-02-22T15:26:20.258Z,76.39
2023-02-22T15:28:48.492Z,75.62
2023-02-22T15:31:25.053Z,76.29
2023-02-22T15:33:55.445Z,76.24
2023-02-22T15:36:27.142Z,76.46
2023-02-22T15:38:56.736Z,76.65
2023-02-22T15:41:28.747Z,77.14
2023-02-22T15:44:14.202Z,76.85
2023-02-22T15:46:48.944Z,77.04
2023-02-22T15:49:24.624Z,77.00
2023-02-22T15:52:10.869Z,77.26
2023-02-22T15:54:44.641Z,77.79
2023-02-22T15:57:15.655Z,77.82
2023-02-22T15:59:46.816Z,77.80
2023-02-22T16:02:30.073Z,78.16
2023-02-22T16:05:01.682Z,78.66
2023-02-22T16:07:29.354Z,78.59
2023-02-22T16:09:57.024Z,78.99
2023-02-22T16:12:27.627Z,79.43
2023-02-22T16:15:00.817Z,78.68
2023-02-22T16:17:36.301Z,78.85
2023-02-22T16:20:33.471Z,79.34
2023-02-22T16:23:01.034Z,78.76
2023-02-22T16:25:33.079Z,79.08
2023-02-22T16:28:06.084Z,79.75
2023-02-22T16:30:35.544Z,78.93
2023-02-22T16:33:06.421Z,80.10
2023-02-22T16:35:35.656Z,79.68
2023-02-22T16:38:04.638Z,78.92
2023-02-22T16:40:34.548Z,79.38
2023-02-22T16:43:03.786Z,80.11
2023-02-22T16:45:31.293Z,80.01
2023-02-22T16:47:59.777Z,80.81
2023-02-22T16:50:27.464Z,80.33
2023-02-22T16:52:58.522Z,79.73
2023-02-22T16:55:26.034Z,80.41
2023-02-22T16:57:56.362Z,79.77
2023-02-22T17:00:31.653Z,80.36
2023-02-22T17:03:02.468Z,80.51
2023-02-22T17:05:30.270Z,81.11
2023-02-22T17:07:59.298Z,79.87
2023-02-22T17:10:27.069Z,80.32
2023-02-22T17:12:54.890Z,81.81
2023-02-22T17:15:25.038Z,81.51
2023-02-22T17:17:54.127Z,80.51
2023-02-22T17:20:30.004Z,81.12
2023-02-22T17:23:00.024Z,81.44
2023-02-22T17:25:31.204Z,81.50
2023-02-22T17:27:59.008Z,81.34
2023-02-22T17:30:28.074Z,81.30
2023-02-22T17:33:03.404Z,81.16
2023-02-22T17:35:35.084Z,81.53
2023-02-22T17:38:06.919Z,81.09
2023-02-22T17:40:35.543Z,81.69
2023-02-22T17:43:03.245Z,82.02
2023-02-22T17:45:31.199Z,81.59
2023-02-22T17:47:59.493Z,81.31
2023-02-22T17:50:27.610Z,81.65
2023-02-22T17:52:55.311Z,82.39
2023-02-22T17:55:24.381Z,82.02
2023-02-22T17:57:58.209Z,82.76
2023-02-22T18:00:33.016Z,81.81
2023-02-22T18:03:02.425Z,81.49
2023-02-22T18:05:30.812Z,82.20
2023-02-22T18:07:58.484Z,81.83
2023-02-22T18:10:27.691Z,82.23
2023-02-22T18:12:56.712Z,81.96
2023-02-22T18:15:28.198Z,82.45
2023-02-22T18:17:56.433Z,81.43
2023-02-22T18:20:31.248Z,82.22
2023-02-22T18:22:59.693Z,81.47
2023-02-22T18:25:28.491Z,81.59
2023-02-22T18:27:56.286Z,81.33
2023-02-22T18:30:24.274Z,82.25
2023-02-22T18:32:52.137Z,82.18
2023-02-22T18:35:19.755Z,82.47
2023-02-22T18:37:47.241Z,81.66
2023-02-22T18:40:18.908Z,82.14
2023-02-22T18:42:48.009Z,82.13
2023-02-22T18:45:15.658Z,81.88
2023-02-22T18:47:45.499Z,81.95
2023-02-22T18:50:13.813Z,82.38
2023-02-22T18:52:45.743Z,82.77
2023-02-22T18:55:14.973Z,81.89
2023-02-22T18:57:42.889Z,82.38
2023-02-22T19:00:14.265Z,82.38
2023-02-22T19:02:43.492Z,82.93
2023-02-22T19:05:11.280Z,82.72
2023-02-22T19:07:38.903Z,82.63
2023-02-22T19:10:07.760Z,83.14
2023-02-22T19:12:35.603Z,83.05
2023-02-22T19:15:03.445Z,82.88
2023-02-22T19:17:32.586Z,82.40
2023-02-22T19:20:00.100Z,83.19
2023-02-22T19:22:32.637Z,82.05
2023-02-22T19:25:01.253Z,83.03
2023-02-22T19:27:30.314Z,83.58
2023-02-22T19:29:59.329Z,83.29
2023-02-22T19:32:27.331Z,83.66
2023-02-22T19:35:02.077Z,83.84
2023-02-22T19:37:35.553Z,83.88
2023-02-22T19:40:06.605Z,81.83
2023-02-22T19:42:34.373Z,82.89
2023-02-22T19:45:02.124Z,83.79
2023-02-22T19:47:29.653Z,83.18
2023-02-22T19:49:59.926Z,84.68
2023-02-22T19:52:28.880Z,84.03
2023-02-22T19:54:56.461Z,83.18
2023-02-22T19:57:24.800Z,83.51
2023-02-22T19:59:52.330Z,83.82
2023-02-22T20:02:22.863Z,83.78
2023-02-22T20:04:51.271Z,84.58
2023-02-22T20:07:20.311Z,84.06
2023-02-22T20:09:49.721Z,84.92
2023-02-22T20:12:17.364Z,84.83
2023-02-22T20:14:46.170Z,85.47
2023-02-22T20:17:13.689Z,85.68
2023-02-22T20:19:42.422Z,85.78
2023-02-22T20:22:13.288Z,85.31
2023-02-22T20:24:42.415Z,85.34
2023-02-22T20:27:10.179Z,86.00
2023-02-22T20:29:38.765Z,85.88
2023-02-22T20:32:09.326Z,86.09
2023-02-22T20:34:37.197Z,86.38
2023-02-22T20:37:05.199Z,86.39
2023-02-22T20:39:32.904Z,85.98
2023-02-22T20:42:03.495Z,86.18
2023-02-22T20:44:31.374Z,86.10
2023-02-22T20:46:59.024Z,86.62
2023-02-22T20:49:27.255Z,86.91
2023-02-22T20:51:54.893Z,85.76
2023-02-22T20:54:22.387Z,87.12
2023-02-22T20:56:52.624Z,86.36
2023-02-22T20:59:22.034Z,86.75
2023-02-22T21:01:50.305Z,87.86
2023-02-22T21:04:18.236Z,86.49
2023-02-22T21:06:46.636Z,86.45
2023-02-22T21:09:16.142Z,88.73
2023-02-22T21:11:43.757Z,88.33
2023-02-22T21:14:12.341Z,87.91
2023-02-22T21:16:41.180Z,87.95
2023-02-22T21:19:08.823Z,87.78
2023-02-22T21:21:36.621Z,87.83
2023-02-22T21:24:04.623Z,88.06
2023-02-22T21:26:33.784Z,88.09
2023-02-22T21:29:03.352Z,86.92
2023-02-22T21:31:32.238Z,87.75
2023-02-22T21:34:01.975Z,87.73
2023-02-22T21:36:29.936Z,88.63
2023-02-22T21:38:59.011Z,88.99
2023-02-22T21:41:28.932Z,89.25
2023-02-22T21:43:57.898Z,89.88
2023-02-22T21:46:26.378Z,89.85
2023-02-22T21:48:53.915Z,89.28
2023-02-22T21:51:25.324Z,88.48
2023-02-22T21:53:54.937Z,88.81
2023-02-22T21:56:27.201Z,88.92
2023-02-22T21:58:58.969Z,89.44
2023-02-22T22:01:28.354Z,89.74
2023-02-22T22:03:59.456Z,89.71
2023-02-22T22:06:29.689Z,89.51
2023-02-22T22:08:57.781Z,89.44
2023-02-22T22:11:25.437Z,89.54
2023-02-22T22:13:56.975Z,90.26
2023-02-22T22:16:26.381Z,89.73
2023-02-22T22:18:54.790Z,90.15
2023-02-22T22:21:24.012Z,91.06
2023-02-22T22:23:55.908Z,90.65
2023-02-22T22:26:24.745Z,90.91
2023-02-22T22:28:54.554Z,91.52
2023-02-22T22:31:24.108Z,91.44
2023-02-22T22:33:51.855Z,91.09
2023-02-22T22:36:21.482Z,90.85
2023-02-22T22:38:49.074Z,90.47
2023-02-22T22:41:19.982Z,90.47
2023-02-22T22:43:48.176Z,90.89
2023-02-22T22:46:17.415Z,90.81
2023-02-22T22:48:47.149Z,90.39
2023-02-22T22:51:18.102Z,90.26
2023-02-22T22:53:47.638Z,90.30
2023-02-22T22:56:18.532Z,89.05
2023-02-22T22:58:49.268Z,89.89
2023-02-22T23:01:19.735Z,89.08
2023-02-22T23:03:55.689Z,90.13
2023-02-22T23:06:27.286Z,91.17
2023-02-22T23:09:00.073Z,91.46
2023-02-22T23:11:29.527Z,90.91
2023-02-22T23:13:57.598Z,90.68
2023-02-22T23:16:25.616Z,90.06
2023-02-22T23:18:53.157Z,89.98
2023-02-22T23:21:24.218Z,91.01
2023-02-22T23:23:53.311Z,91.04
2023-02-22T23:26:20.826Z,90.81
2023-02-22T23:28:52.377Z,87.93
2023-02-22T23:31:20.454Z,88.81
2023-02-22T23:33:49.138Z,89.26
2023-02-22T23:36:17.376Z,89.06
2023-02-22T23:38:45.453Z,89.20
2023-02-22T23:41:16.361Z,88.83
2023-02-22T23:43:45.362Z,88.81
2023-02-22T23:46:18.560Z,89.64
2023-02-22T23:48:50.819Z,90.65
2023-02-22T23:51:20.569Z,90.10
2023-02-22T23:53:49.493Z,90.71
2023-02-22T23:56:19.022Z,91.83
2023-02-22T23:58:49.860Z,90.56
